Time;durP1;ratioP1;P1;durP2;ratioP2;P2;SDS_P1;SDS_P2;PMS_P1;PMS_P2;Temp;Humidity;BMP_temperature;BMP_pressure;BME280_temperature;BME280_humidity;BME280_pressure;Samples;Min_cycle;Max_cycle;Signal;HPM_P1;HPM_P2
2022/06/08 05:47:59;;;;;;;2.85;0.90;;;;;;;;;;6243448;22;20243;-82
2022/06/08 05:50:26;;;;;;;1.35;0.90;;;;;;;;;;6247855;23;20008;-83
2022/06/08 05:52:52;;;;;;;0.82;0.82;;;;;;;;;;6248165;23;20000;-84
2022/06/08 05:55:19;;;;;;;1.15;0.80;;;;;;;;;;6247816;23;20046;-82
2022/06/08 05:57:45;;;;;;;1.55;1.00;;;;;;;;;;6277800;22;20011;-84
2022/06/08 06:00:16;;;;;;;2.20;1.08;;;;;;;;;;6278735;22;20430;-84
2022/06/08 09:39:44;;;;;;;0.60;0.60;;;;;;;;;;6285462;22;20046;-82
2022/06/08 09:42:32;;;;;;;2.03;0.70;;;;;;;;;;6281778;22;20018;-82
2022/06/08 09:45:22;;;;;;;2.83;0.88;;;;;;;;;;6309588;22;20411;-82
2022/06/08 09:53:45;;;;;;;2.17;0.85;;;;;;;;;;6278411;22;20014;-82
2022/06/08 09:56:20;;;;;;;1.05;0.60;;;;;;;;;;6278268;22;20004;-82
2022/06/08 09:59:04;;;;;;;1.20;0.77;;;;;;;;;;6278237;22;20007;-82
2022/06/08 10:01:42;;;;;;;1.77;0.82;;;;;;;;;;6278514;22;20034;-82
2022/06/08 10:04:35;;;;;;;1.92;0.60;;;;;;;;;;6278980;22;20422;-82
2022/06/08 10:07:18;;;;;;;1.75;0.80;;;;;;;;;;6278048;22;20003;-83
2022/06/08 10:09:55;;;;;;;0.95;0.90;;;;;;;;;;6278318;22;20312;-81
2022/06/08 10:12:34;;;;;;;7.32;1.08;;;;;;;;;;6278179;22;20038;-81
2022/06/08 10:15:01;;;;;;;1.77;0.75;;;;;;;;;;6278252;22;20007;-82
2022/06/08 10:17:40;;;;;;;2.78;0.70;;;;;;;;;;6277865;22;20057;-84
2022/06/08 10:20:12;;;;;;;;;;;;;;;;;;6278701;22;19996;-82
2022/06/08 10:22:45;;;;;;;0.75;0.75;;;;;;;;;;6278213;22;19907;-82
2022/06/08 10:25:16;;;;;;;1.10;0.70;;;;;;;;;;6278044;22;20441;-85
2022/06/08 10:27:56;;;;;;;1.05;0.90;;;;;;;;;;6250925;22;20405;-85
2022/06/08 10:31:01;;;;;;;1.73;1.10;;;;;;;;;;6277552;22;20000;-83
2022/06/08 10:33:32;;;;;;;1.23;1.00;;;;;;;;;;6277868;22;20003;-86
2022/06/08 10:35:59;;;;;;;0.90;0.90;;;;;;;;;;6278291;22;20011;-86
2022/06/08 10:38:31;;;;;;;1.00;1.00;;;;;;;;;;6278269;22;20003;-86
2022/06/08 10:44:03;;;;;;;2.88;0.88;;;;;;;;;;6277959;22;20457;-86
2022/06/08 10:46:45;;;;;;;1.75;1.00;;;;;;;;;;6278371;22;20058;-87
2022/06/08 10:49:21;;;;;;;2.67;1.35;;;;;;;;;;6250774;22;20003;-88
2022/06/08 10:52:12;;;;;;;1.67;0.90;;;;;;;;;;6277961;22;20004;-89
2022/06/08 10:54:53;;;;;;;0.80;0.80;;;;;;;;;;6278027;22;20008;-85
2022/06/08 10:57:36;;;;;;;1.08;1.05;;;;;;;;;;6278803;22;20026;-87
2022/06/08 11:00:58;;;;;;;2.95;1.15;;;;;;;;;;6277824;22;20052;-86
2022/06/08 11:03:49;;;;;;;2.90;0.95;;;;;;;;;;6219498;22;20327;-84
2022/06/08 11:06:45;;;;;;;1.27;1.00;;;;;;;;;;6277909;22;20003;-85
2022/06/08 11:09:19;;;;;;;1.95;1.02;;;;;;;;;;6277890;22;20003;-85
2022/06/08 11:11:49;;;;;;;2.25;1.20;;;;;;;;;;6277590;22;20006;-85
2022/06/08 11:14:29;;;;;;;1.70;1.13;;;;;;;;;;6278707;22;20008;-85
2022/06/08 11:17:02;;;;;;;1.15;0.98;;;;;;;;;;6277775;22;20000;-85
2022/06/08 11:19:29;;;;;;;6.88;1.00;;;;;;;;;;6277462;22;20011;-86
2022/06/08 11:21:58;;;;;;;1.45;0.93;;;;;;;;;;6278536;22;20430;-84
2022/06/08 11:24:27;;;;;;;1.95;1.13;;;;;;;;;;6280648;22;20006;-85
2022/06/08 11:26:53;;;;;;;;;;;;;;;;;;6253329;22;20014;-85
2022/06/08 11:29:18;;;;;;;1.55;1.30;;;;;;;;;;6280475;22;19907;-84
2022/06/08 11:31:44;;;;;;;0.93;0.85;;;;;;;;;;6281090;22;20303;-84
2022/06/08 11:34:18;;;;;;;1.98;0.90;;;;;;;;;;6279769;22;20007;-83
2022/06/08 11:36:53;;;;;;;2.10;1.23;;;;;;;;;;6277476;22;20004;-82
2022/06/08 11:39:36;;;;;;;1.35;1.25;;;;;;;;;;6277394;22;20008;-81
2022/06/08 11:42:24;;;;;;;4.32;1.83;;;;;;;;;;6277441;22;20012;-82
2022/06/08 11:45:13;;;;;;;3.08;1.67;;;;;;;;;;6277919;22;20010;-82
2022/06/08 17:08:35;;;;;;;1.63;1.45;;;;;;;;;;6279637;22;20039;-83
2022/06/08 17:13:49;;;;;;;2.33;1.50;;;;;;;;;;6309797;22;20018;-86
2022/06/08 17:16:14;;;;;;;5.10;2.38;;;;;;;;;;6281383;22;20011;-86
2022/06/08 17:18:40;;;;;;;1.50;1.40;;;;;;;;;;6278884;22;20007;-85
2022/06/08 17:21:06;;;;;;;1.90;1.70;;;;;;;;;;6278771;22;20330;-85
2022/06/08 17:23:32;;;;;;;3.03;1.67;;;;;;;;;;6278822;22;20025;-84
2022/06/08 17:25:58;;;;;;;4.00;1.50;;;;;;;;;;6278666;22;20003;-86
2022/06/08 17:28:24;;;;;;;2.38;1.63;;;;;;;;;;6278797;22;20006;-86
2022/06/08 17:30:50;;;;;;;1.33;1.23;;;;;;;;;;6251102;22;20000;-87
2022/06/08 17:33:15;;;;;;;1.60;1.45;;;;;;;;;;6278706;22;20004;-86
2022/06/08 17:35:41;;;;;;;1.77;1.63;;;;;;;;;;6278439;22;19999;-84
2022/06/08 17:38:07;;;;;;;2.08;1.70;;;;;;;;;;6278096;22;20007;-84
2022/06/08 17:40:33;;;;;;;2.92;1.67;;;;;;;;;;6278428;22;19999;-83
2022/06/08 17:42:58;;;;;;;1.95;1.60;;;;;;;;;;6278441;22;20102;-84
2022/06/08 17:45:24;;;;;;;3.78;2.10;;;;;;;;;;6251078;22;20090;-83
2022/06/08 17:47:49;;;;;;;3.17;1.83;;;;;;;;;;6278666;22;20367;-84
2022/06/08 17:50:16;;;;;;;2.95;1.60;;;;;;;;;;6278583;22;20028;-84
2022/06/08 17:52:42;;;;;;;2.95;1.75;;;;;;;;;;6278381;22;20338;-83
2022/06/08 17:55:08;;;;;;;4.60;1.85;;;;;;;;;;6278465;22;20034;-85
2022/06/08 17:57:34;;;;;;;1.55;1.45;;;;;;;;;;6278265;22;20034;-85
2022/06/08 18:00:01;;;;;;;2.90;1.20;;;;;;;;;;6251239;22;20049;-85
2022/06/08 18:02:27;;;;;;;2.03;1.60;;;;;;;;;;6278341;22;20007;-85
2022/06/08 18:04:53;;;;;;;2.60;1.42;;;;;;;;;;6278243;22;19995;-85
2022/06/08 18:07:21;;;;;;;2.38;1.50;;;;;;;;;;6278434;22;20178;-84
2022/06/08 18:09:46;;;;;;;2.85;1.50;;;;;;;;;;6278103;22;20014;-86
2022/06/08 18:12:13;;;;;;;2.95;1.70;;;;;;;;;;6278179;22;20083;-85
2022/06/08 18:14:46;;;;;;;2.50;1.88;;;;;;;;;;6278202;22;20075;-84
2022/06/08 18:17:13;;;;;;;1.73;1.63;;;;;;;;;;6278098;22;20039;-84
2022/06/08 18:19:39;;;;;;;3.58;2.10;;;;;;;;;;6277976;22;20039;-84
2022/06/08 18:22:05;;;;;;;6.55;5.85;;;;;;;;;;6251018;22;20011;-84
2022/06/08 18:24:31;;;;;;;3.42;2.65;;;;;;;;;;6278033;22;20058;-84
2022/06/08 18:27:26;;;;;;;2.10;1.90;;;;;;;;;;6278511;22;20007;-84
2022/06/08 18:29:53;;;;;;;2.10;2.00;;;;;;;;;;6261320;22;20438;-84
2022/06/08 18:32:19;;;;;;;2.85;2.22;;;;;;;;;;6278071;22;20010;-84
2022/06/08 18:34:45;;;;;;;2.35;1.90;;;;;;;;;;6277955;22;20003;-85
2022/06/08 18:37:10;;;;;;;2.58;2.00;;;;;;;;;;6278075;22;20031;-83
2022/06/08 18:39:36;;;;;;;2.08;1.35;;;;;;;;;;6278060;22;20010;-83
2022/06/08 18:42:01;;;;;;;3.20;1.80;;;;;;;;;;6278030;22;19999;-84
2022/06/08 18:44:27;;;;;;;3.95;1.67;;;;;;;;;;6278244;22;20079;-86
2022/06/08 18:46:53;;;;;;;2.63;1.50;;;;;;;;;;6277820;22;19999;-84
2022/06/08 18:49:23;;;;;;;4.43;1.80;;;;;;;;;;6277992;22;20081;-83
2022/06/08 18:51:50;;;;;;;3.22;1.80;;;;;;;;;;6278014;22;20003;-85
2022/06/08 18:54:17;;;;;;;2.75;1.70;;;;;;;;;;6277977;22;20000;-84
2022/06/08 18:56:44;;;;;;;3.55;1.90;;;;;;;;;;6277771;22;20377;-85
2022/06/08 18:59:09;;;;;;;1.65;1.55;;;;;;;;;;6277663;22;20007;-85
2022/06/08 19:01:35;;;;;;;4.88;3.20;;;;;;;;;;6277835;22;20010;-86
2022/06/08 19:04:00;;;;;;;2.88;2.00;;;;;;;;;;6277753;22;20028;-84
2022/06/08 19:06:26;;;;;;;3.92;2.40;;;;;;;;;;6277542;22;20004;-84
2022/06/08 19:08:53;;;;;;;2.47;1.90;;;;;;;;;;6277532;22;20086;-86
2022/06/08 19:11:22;;;;;;;4.45;2.47;;;;;;;;;;6277722;22;20098;-85
2022/06/08 19:13:48;;;;;;;2.95;2.20;;;;;;;;;;6277650;22;20006;-83
2022/06/08 19:16:16;;;;;;;2.20;2.00;;;;;;;;;;6277497;22;20011;-85
2022/06/08 19:21:26;;;;;;;4.50;2.03;;;;;;;;;;6277888;22;20096;-85
2022/06/08 19:23:53;;;;;;;5.43;3.97;;;;;;;;;;6250111;22;20003;-86
2022/06/08 19:26:20;;;;;;;5.57;3.45;;;;;;;;;;6250402;22;20086;-87
2022/06/08 19:28:46;;;;;;;3.97;3.67;;;;;;;;;;6276976;22;20003;-85
2022/06/08 19:31:15;;;;;;;3.97;3.25;;;;;;;;;;6277837;22;20308;-89
2022/06/08 19:33:44;;;;;;;2.93;2.70;;;;;;;;;;6250385;22;20094;-89
2022/06/08 19:36:14;;;;;;;4.10;3.70;;;;;;;;;;6278338;22;20068;-90
2022/06/08 19:38:40;;;;;;;3.50;3.20;;;;;;;;;;6278361;22;19999;-86
2022/06/08 19:41:08;;;;;;;4.93;3.30;;;;;;;;;;6250469;22;20014;-87
2022/06/08 19:43:34;;;;;;;3.97;3.40;;;;;;;;;;6277517;22;20082;-88
2022/06/08 19:46:00;;;;;;;5.03;3.67;;;;;;;;;;6278206;22;20510;-87
2022/06/08 19:48:26;;;;;;;3.15;2.85;;;;;;;;;;6278145;22;20063;-89
2022/06/08 19:50:51;;;;;;;3.53;2.95;;;;;;;;;;6278691;22;20045;-89
2022/06/08 19:53:20;;;;;;;4.28;2.42;;;;;;;;;;6250650;22;19999;-89
2022/06/08 19:55:46;;;;;;;3.00;2.70;;;;;;;;;;6250731;22;20449;-87
2022/06/08 19:58:13;;;;;;;3.35;2.70;;;;;;;;;;6276792;22;20004;-87
2022/06/08 20:00:41;;;;;;;5.40;3.38;;;;;;;;;;6249924;22;20050;-87
2022/06/08 20:03:07;;;;;;;3.47;3.00;;;;;;;;;;6249663;22;20065;-88
2022/06/08 20:05:34;;;;;;;3.85;2.90;;;;;;;;;;6250070;22;20008;-87
2022/06/08 20:08:01;;;;;;;2.97;2.78;;;;;;;;;;6249775;22;20455;-87
2022/06/08 20:10:27;;;;;;;2.40;2.20;;;;;;;;;;6277340;22;20049;-87
2022/06/08 20:12:54;;;;;;;3.08;2.13;;;;;;;;;;6276917;22;20014;-87
2022/06/08 20:15:22;;;;;;;2.60;2.40;;;;;;;;;;6249976;22;20323;-87
2022/06/08 20:17:48;;;;;;;2.72;2.40;;;;;;;;;;6277298;22;20000;-87
2022/06/08 20:20:14;;;;;;;4.22;2.35;;;;;;;;;;6250281;22;20008;-86
2022/06/08 20:22:40;;;;;;;4.05;3.50;;;;;;;;;;6250133;22;20050;-88
2022/06/08 20:25:08;;;;;;;3.67;3.30;;;;;;;;;;6278327;22;20003;-89
2022/06/08 20:27:34;;;;;;;2.83;2.50;;;;;;;;;;6277612;22;20003;-87
2022/06/08 20:30:02;;;;;;;3.45;2.92;;;;;;;;;;6277671;22;20079;-88
2022/06/08 20:32:28;;;;;;;3.60;3.10;;;;;;;;;;6277198;22;20011;-86
2022/06/08 20:34:53;;;;;;;4.15;3.60;;;;;;;;;;6277133;22;20292;-87
2022/06/08 20:37:22;;;;;;;4.13;2.70;;;;;;;;;;6277372;22;20012;-88
2022/06/08 20:39:48;;;;;;;3.75;3.10;;;;;;;;;;6277490;22;20000;-88
2022/06/08 20:42:15;;;;;;;3.47;2.90;;;;;;;;;;6252220;22;20066;-87
2022/06/08 20:44:45;;;;;;;4.65;3.15;;;;;;;;;;6279378;22;19995;-88
2022/06/08 20:47:13;;;;;;;17.13;4.20;;;;;;;;;;6279614;22;20000;-87
2022/06/08 20:49:39;;;;;;;4.65;3.92;;;;;;;;;;6252395;22;20011;-86
2022/06/08 20:52:06;;;;;;;3.97;3.05;;;;;;;;;;6279388;22;20004;-86
2022/06/08 20:54:32;;;;;;;3.92;3.60;;;;;;;;;;6279297;22;20374;-85
2022/06/08 20:57:00;;;;;;;4.40;4.00;;;;;;;;;;6279457;22;20018;-87
2022/06/08 20:59:26;;;;;;;3.58;3.10;;;;;;;;;;6279716;22;20014;-88
2022/06/08 21:01:51;;;;;;;2.88;2.50;;;;;;;;;;6279260;22;20078;-86
2022/06/08 21:04:17;;;;;;;2.70;2.25;;;;;;;;;;6279333;22;20062;-87
2022/06/08 21:06:44;;;;;;;3.97;3.00;;;;;;;;;;6279367;22;20003;-86
2022/06/08 21:09:09;;;;;;;5.50;3.35;;;;;;;;;;6278846;22;20079;-85
2022/06/08 21:11:35;;;;;;;4.15;3.35;;;;;;;;;;6279268;22;20089;-88
2022/06/08 21:14:00;;;;;;;3.92;3.50;;;;;;;;;;6279246;22;19995;-87
2022/06/08 21:16:26;;;;;;;5.22;3.22;;;;;;;;;;6279385;22;20003;-88
2022/06/08 21:18:51;;;;;;;3.75;3.00;;;;;;;;;;6252218;22;20008;-88
2022/06/08 21:21:20;;;;;;;3.08;2.78;;;;;;;;;;6279160;22;20373;-88
2022/06/08 21:23:46;;;;;;;3.67;2.60;;;;;;;;;;6279183;22;20007;-86
2022/06/08 21:26:12;;;;;;;2.63;2.42;;;;;;;;;;6251945;22;20003;-87
2022/06/08 21:28:38;;;;;;;3.70;3.40;;;;;;;;;;6278912;22;20075;-88
2022/06/08 21:31:05;;;;;;;2.75;2.55;;;;;;;;;;6278968;22;20000;-87
2022/06/08 21:33:32;;;;;;;2.38;2.15;;;;;;;;;;6251885;22;20308;-87
2022/06/08 21:35:59;;;;;;;3.55;2.30;;;;;;;;;;6251538;22;20419;-88
2022/06/08 21:38:24;;;;;;;3.15;2.28;;;;;;;;;;6278829;22;20000;-87
2022/06/08 21:40:50;;;;;;;2.45;2.13;;;;;;;;;;6278880;22;20011;-88
2022/06/08 21:43:16;;;;;;;4.07;2.67;;;;;;;;;;6278822;22;20037;-86
2022/06/08 21:45:42;;;;;;;4.47;3.28;;;;;;;;;;6279041;22;20004;-87
2022/06/08 21:48:09;;;;;;;4.10;2.97;;;;;;;;;;6278849;22;20039;-87
2022/06/08 21:50:40;;;;;;;3.60;3.03;;;;;;;;;;6279125;22;20030;-87
2022/06/08 21:53:08;;;;;;;4.40;2.85;;;;;;;;;;6278150;22;20004;-83
2022/06/08 21:55:35;;;;;;;3.15;2.90;;;;;;;;;;6278786;22;19996;-82
2022/06/08 21:58:01;;;;;;;3.60;3.30;;;;;;;;;;6251372;22;20331;-83
2022/06/08 22:00:40;;;;;;;3.15;2.85;;;;;;;;;;6251589;22;20326;-83
2022/06/08 22:03:09;;;;;;;3.45;2.70;;;;;;;;;;6252334;22;20179;-88
2022/06/08 22:05:35;;;;;;;;;;;;;;;;;;6279373;22;20079;-87
2022/06/08 22:08:00;;;;;;;5.30;3.03;;;;;;;;;;6279330;22;19903;-85
2022/06/08 22:10:26;;;;;;;3.30;2.83;;;;;;;;;;6278846;22;20415;-87
2022/06/08 22:12:52;;;;;;;4.55;2.60;;;;;;;;;;6278768;22;20419;-88
2022/06/08 22:15:22;;;;;;;2.55;2.20;;;;;;;;;;6278405;22;20069;-88
2022/06/08 22:17:48;;;;;;;2.35;2.15;;;;;;;;;;6278742;22;19999;-88
2022/06/08 22:20:17;;;;;;;2.90;2.20;;;;;;;;;;6279184;22;20370;-92
